Time;durP1;ratioP1;P1;durP2;ratioP2;P2;SDS_P1;SDS_P2;PMS_P1;PMS_P2;Temp;Humidity;BMP_temperature;BMP_pressure;BME280_temperature;BME280_humidity;BME280_pressure;Samples;Min_cycle;Max_cycle;Signal;HPM_P1;HPM_P2
2022/11/30 00:00:36;;;;;;;10.85;4.40;;;5.50;99.90;;;;;;5061346;28;20032;-46
2022/11/30 00:03:02;;;;;;;47.30;6.10;;;5.50;99.90;;;;;;5061257;28;20036;-48
2022/11/30 00:05:28;;;;;;;45.03;5.75;;;5.40;99.90;;;;;;5079252;28;20420;-48
2022/11/30 00:07:54;;;;;;;77.72;10.57;;;5.40;99.90;;;;;;5060477;28;20033;-48
2022/11/30 00:10:23;;;;;;;87.90;11.45;;;5.40;99.90;;;;;;5059492;28;20037;-47
2022/11/30 00:12:49;;;;;;;98.90;11.00;;;5.40;99.90;;;;;;5061492;28;20409;-44
2022/11/30 00:15:16;;;;;;;75.65;10.80;;;5.30;99.90;;;;;;5067149;28;20107;-46
2022/11/30 00:17:45;;;;;;;69.10;9.48;;;5.30;99.90;;;;;;5058773;28;20490;-44
2022/11/30 00:20:13;;;;;;;117.35;13.75;;;5.30;99.90;;;;;;5058080;28;20076;-48
2022/11/30 00:22:39;;;;;;;54.20;6.90;;;5.20;99.90;;;;;;5067161;28;20553;-41
2022/11/30 00:25:05;;;;;;;90.90;7.53;;;5.10;99.90;;;;;;5064125;28;20055;-46
2022/11/30 00:27:32;;;;;;;119.95;11.25;;;5.10;99.90;;;;;;5062761;28;20048;-44
2022/11/30 00:29:58;;;;;;;64.35;6.50;;;5.10;99.90;;;;;;5062921;28;20083;-47
2022/11/30 00:32:25;;;;;;;56.95;6.25;;;5.00;99.90;;;;;;5065393;28;20032;-50
2022/11/30 00:34:51;;;;;;;63.38;7.57;;;5.00;99.90;;;;;;5069997;28;20106;-48
2022/11/30 00:37:17;;;;;;;101.38;8.93;;;5.00;99.90;;;;;;5058443;28;20037;-45
2022/11/30 00:39:43;;;;;;;93.45;11.70;;;5.00;99.90;;;;;;5065692;28;20394;-48
2022/11/30 00:42:08;;;;;;;76.25;7.80;;;4.90;99.90;;;;;;5057100;28;20181;-49
2022/11/30 00:44:34;;;;;;;71.78;8.18;;;4.90;99.90;;;;;;5056815;28;20460;-46
2022/11/30 00:47:00;;;;;;;46.92;7.57;;;4.90;99.90;;;;;;5060583;28;20493;-47
2022/11/30 00:49:25;;;;;;;80.13;8.60;;;4.90;99.90;;;;;;5059891;28;20046;-44
2022/11/30 00:51:51;;;;;;;83.03;8.32;;;4.80;99.90;;;;;;5063647;28;20470;-48
2022/11/30 00:54:17;;;;;;;127.07;13.00;;;4.80;99.90;;;;;;5060278;28;20033;-47
2022/11/30 00:56:43;;;;;;;87.85;9.13;;;4.80;99.90;;;;;;5066598;28;20131;-46
2022/11/30 00:59:08;;;;;;;94.15;10.38;;;4.80;99.90;;;;;;5066551;28;20037;-46
2022/11/30 01:01:34;;;;;;;107.90;11.02;;;4.80;99.90;;;;;;5061010;28;20413;-47
2022/11/30 01:04:01;;;;;;;69.55;7.68;;;4.80;99.90;;;;;;5060717;28;20046;-45
2022/11/30 01:06:27;;;;;;;53.03;8.55;;;4.80;99.90;;;;;;5064042;28;20071;-40
2022/11/30 01:08:52;;;;;;;98.25;12.95;;;4.80;99.90;;;;;;5064939;28;20145;-47
2022/11/30 01:11:29;;;;;;;53.50;8.23;;;4.80;99.90;;;;;;5060461;28;20495;-48
2022/11/30 01:13:57;;;;;;;133.65;10.90;;;4.90;99.90;;;;;;5055043;28;20591;-47
2022/11/30 01:16:28;;;;;;;117.63;13.50;;;4.80;99.90;;;;;;5059686;28;20041;-49
2022/11/30 01:18:54;;;;;;;69.00;7.47;;;4.80;99.90;;;;;;5062414;28;20517;-47
2022/11/30 01:21:22;;;;;;;45.20;5.57;;;4.80;99.90;;;;;;5058872;28;20386;-49
2022/11/30 01:23:48;;;;;;;59.08;7.88;;;4.80;99.90;;;;;;5058230;28;20064;-48
2022/11/30 01:26:14;;;;;;;73.68;9.57;;;4.80;99.90;;;;;;5059197;28;20040;-45
2022/11/30 01:28:42;;;;;;;42.70;7.82;;;4.80;99.90;;;;;;5062649;28;20044;-48
2022/11/30 01:31:10;;;;;;;74.00;9.38;;;4.70;99.90;;;;;;5060375;28;20493;-47
2022/11/30 01:33:36;;;;;;;55.00;7.95;;;4.70;99.90;;;;;;5066828;28;20463;-47
2022/11/30 01:36:05;;;;;;;57.55;8.10;;;4.70;99.90;;;;;;5057262;28;20615;-42
2022/11/30 01:38:37;;;;;;;78.30;9.70;;;4.70;99.90;;;;;;5045294;28;20464;-44
2022/11/30 01:41:04;;;;;;;34.55;7.10;;;4.70;99.90;;;;;;5045588;28;20059;-46
2022/11/30 01:43:48;;;;;;;40.10;7.45;;;4.60;99.90;;;;;;5060832;28;20044;-45
2022/11/30 01:46:26;;;;;;;24.10;5.97;;;4.60;99.90;;;;;;5046277;28;20144;-42
2022/11/30 01:49:19;;;;;;;9.45;5.60;;;4.60;99.90;;;;;;5045111;28;20498;-44
2022/11/30 01:51:52;;;;;;;10.02;5.43;;;4.60;99.90;;;;;;5041801;28;20967;-45
2022/11/30 01:54:23;;;;;;;8.48;5.07;;;4.60;99.90;;;;;;5046631;28;20131;-48
2022/11/30 01:57:32;;;;;;;9.15;5.00;;;4.70;99.90;;;;;;5047451;28;20028;-46
2022/11/30 02:00:00;;;;;;;12.77;6.05;;;4.70;99.90;;;;;;5046591;28;20056;-47
2022/11/30 02:02:41;;;;;;;10.18;5.72;;;4.80;99.90;;;;;;5052692;28;20493;-48
2022/11/30 02:05:08;;;;;;;11.95;6.47;;;4.80;99.90;;;;;;5057407;28;20045;-47
2022/11/30 02:07:34;;;;;;;11.35;6.78;;;4.90;99.90;;;;;;5051657;28;20040;-47
2022/11/30 02:10:00;;;;;;;10.60;5.85;;;4.90;99.90;;;;;;5057860;28;20512;-49
2022/11/30 02:12:47;;;;;;;10.85;6.13;;;5.00;99.90;;;;;;5063810;28;20041;-45
2022/11/30 02:15:24;;;;;;;13.10;6.40;;;5.00;99.90;;;;;;5055647;28;20540;-47
2022/11/30 02:18:00;;;;;;;11.80;6.43;;;5.00;99.90;;;;;;5052412;28;20487;-42
2022/11/30 02:20:56;;;;;;;11.40;6.10;;;5.00;99.90;;;;;;5057764;28;20124;-48
2022/11/30 02:23:54;;;;;;;13.30;6.95;;;5.10;99.90;;;;;;5035327;28;20056;-49
2022/11/30 02:27:00;;;;;;;12.20;6.82;;;5.10;99.90;;;;;;5062244;28;20051;-47
2022/11/30 02:29:50;;;;;;;12.27;6.05;;;5.00;99.90;;;;;;5055456;28;20382;-41
2022/11/30 02:32:21;;;;;;;11.35;6.13;;;5.00;99.90;;;;;;5058234;28;20037;-45
2022/11/30 02:34:49;;;;;;;13.05;6.65;;;4.90;99.90;;;;;;5055272;28;20053;-44
2022/11/30 02:37:16;;;;;;;11.20;5.90;;;4.90;99.90;;;;;;5032865;28;20207;-48
2022/11/30 02:39:42;;;;;;;11.82;6.32;;;4.80;99.90;;;;;;5040732;28;20567;-45
2022/11/30 02:42:13;;;;;;;13.55;7.70;;;4.80;99.90;;;;;;5035167;28;20422;-48
2022/11/30 02:44:46;;;;;;;13.80;7.85;;;4.70;99.90;;;;;;5029316;28;20030;-48
2022/11/30 02:47:18;;;;;;;11.35;6.45;;;4.70;99.90;;;;;;5035877;28;20044;-46
2022/11/30 02:49:46;;;;;;;16.30;6.70;;;4.80;99.90;;;;;;5037740;28;20449;-47
2022/11/30 02:52:13;;;;;;;15.23;7.95;;;4.70;99.90;;;;;;5041906;28;20052;-43
2022/11/30 02:54:39;;;;;;;10.48;5.88;;;4.70;99.90;;;;;;5041108;28;20406;-46
2022/11/30 02:57:05;;;;;;;11.57;6.22;;;4.80;99.90;;;;;;5040068;28;20037;-44
2022/11/30 02:59:31;;;;;;;9.93;5.60;;;4.70;99.90;;;;;;5032590;28;20566;-46
2022/11/30 03:01:57;;;;;;;11.63;6.97;;;4.70;99.90;;;;;;5038211;28;20042;-47
2022/11/30 03:04:22;;;;;;;10.40;5.50;;;4.60;99.90;;;;;;5029320;28;20098;-40
2022/11/30 03:06:48;;;;;;;9.88;5.47;;;4.60;99.90;;;;;;5029539;28;20094;-47
2022/11/30 03:09:14;;;;;;;22.10;5.95;;;4.60;99.90;;;;;;5039347;28;20118;-45
2022/11/30 03:11:39;;;;;;;9.82;5.65;;;4.50;99.90;;;;;;5035801;28;20052;-47
2022/11/30 03:14:05;;;;;;;9.43;4.32;;;4.50;99.90;;;;;;5042447;28;20561;-45
2022/11/30 03:16:32;;;;;;;9.20;4.53;;;4.50;99.90;;;;;;5040487;28;20152;-39
2022/11/30 03:18:58;;;;;;;8.38;5.35;;;4.50;99.90;;;;;;5036605;28;20060;-47
2022/11/30 03:21:24;;;;;;;7.82;4.45;;;4.50;99.90;;;;;;5038162;28;20040;-47
2022/11/30 03:23:49;;;;;;;7.15;4.35;;;4.50;99.90;;;;;;5035844;28;20441;-48
2022/11/30 03:26:15;;;;;;;7.88;4.38;;;4.40;99.90;;;;;;5034595;28;20470;-41
2022/11/30 03:28:41;;;;;;;10.07;4.78;;;4.30;99.90;;;;;;5040020;28;20037;-48
2022/11/30 03:31:10;;;;;;;10.75;4.63;;;4.30;99.90;;;;;;5038105;28;20120;-41
2022/11/30 03:33:35;;;;;;;7.32;4.40;;;4.20;99.90;;;;;;5034517;28;20036;-43
2022/11/30 03:36:05;;;;;;;12.65;4.93;;;4.20;99.90;;;;;;5039878;28;20106;-40
2022/11/30 03:38:31;;;;;;;46.88;7.57;;;4.10;99.90;;;;;;5040666;28;20045;-48
2022/11/30 03:41:09;;;;;;;11.45;5.47;;;4.10;99.90;;;;;;5033067;28;20166;-44
2022/11/30 03:43:35;;;;;;;8.75;5.10;;;4.10;99.90;;;;;;5040412;28;20043;-45
2022/11/30 03:46:01;;;;;;;9.02;4.93;;;4.10;99.90;;;;;;5033033;28;20040;-48
2022/11/30 03:48:27;;;;;;;8.15;4.45;;;4.00;99.90;;;;;;5040493;28;20075;-47
2022/11/30 03:50:52;;;;;;;8.52;4.60;;;4.00;99.90;;;;;;5031772;28;20569;-47
2022/11/30 03:53:20;;;;;;;9.93;5.00;;;4.00;99.90;;;;;;5043267;28;20091;-38
2022/11/30 03:55:50;;;;;;;11.05;5.28;;;3.90;99.90;;;;;;5031416;28;20041;-44
2022/11/30 03:58:15;;;;;;;8.32;3.97;;;3.90;99.90;;;;;;5036993;28;20143;-45
2022/11/30 04:00:41;;;;;;;8.23;4.45;;;3.90;99.90;;;;;;5039935;28;20107;-45
2022/11/30 04:03:07;;;;;;;9.50;5.28;;;3.90;99.90;;;;;;5035755;28;20044;-47
2022/11/30 04:05:32;;;;;;;11.68;5.43;;;3.80;99.90;;;;;;5034993;28;20038;-42
2022/11/30 04:07:58;;;;;;;13.52;5.10;;;3.80;99.90;;;;;;5029952;28;20040;-44
2022/11/30 04:10:24;;;;;;;115.57;11.45;;;3.80;99.90;;;;;;5037483;28;20045;-48
2022/11/30 04:12:50;;;;;;;65.40;7.60;;;3.70;99.90;;;;;;5036033;28;20042;-48
2022/11/30 04:15:15;;;;;;;139.60;10.23;;;3.70;99.90;;;;;;5039037;28;20402;-45
2022/11/30 04:17:41;;;;;;;223.82;16.60;;;3.70;99.90;;;;;;5035232;28;20029;-48
2022/11/30 04:20:07;;;;;;;113.47;9.40;;;3.70;99.90;;;;;;5025623;28;20037;-49
2022/11/30 04:22:32;;;;;;;113.10;9.70;;;3.70;99.90;;;;;;5033470;28;20040;-48
2022/11/30 04:24:58;;;;;;;101.65;9.55;;;3.60;99.90;;;;;;5036969;28;20132;-45
2022/11/30 04:27:24;;;;;;;98.75;9.57;;;3.60;99.90;;;;;;5037174;28;20094;-46
2022/11/30 04:29:50;;;;;;;75.55;10.88;;;3.60;99.90;;;;;;5036174;28;20087;-46
2022/11/30 04:32:15;;;;;;;88.70;7.63;;;3.60;99.90;;;;;;5043354;28;20379;-48
2022/11/30 04:34:42;;;;;;;100.43;8.85;;;3.60;99.90;;;;;;5034174;28;20117;-48
2022/11/30 04:37:08;;;;;;;84.78;7.95;;;3.60;99.90;;;;;;5057094;28;20040;-44
2022/11/30 04:39:34;;;;;;;118.60;11.10;;;3.60;99.90;;;;;;5057665;28;20041;-47
2022/11/30 04:42:00;;;;;;;41.45;5.53;;;3.50;99.90;;;;;;5060228;28;20160;-47
2022/11/30 04:44:26;;;;;;;41.13;6.50;;;3.50;99.90;;;;;;5053815;28;20116;-43
2022/11/30 04:46:51;;;;;;;41.17;5.22;;;3.50;99.90;;;;;;5058767;28;20771;-44
2022/11/30 04:49:17;;;;;;;30.65;5.63;;;3.50;99.90;;;;;;5056547;28;20044;-42
2022/11/30 04:51:42;;;;;;;24.08;4.28;;;3.50;99.90;;;;;;5050951;28;20041;-42
2022/11/30 04:54:08;;;;;;;50.25;6.53;;;3.50;99.90;;;;;;5060696;28;20044;-45
2022/11/30 04:56:34;;;;;;;33.50;4.90;;;3.50;99.90;;;;;;5061333;28;22692;-41
2022/11/30 04:59:02;;;;;;;45.45;5.72;;;3.50;99.90;;;;;;5059312;28;20131;-47
2022/11/30 05:01:28;;;;;;;15.93;4.50;;;3.50;99.90;;;;;;5058391;28;20037;-45
2022/11/30 05:03:53;;;;;;;32.30;6.18;;;3.50;99.90;;;;;;5053713;28;20041;-42
2022/11/30 05:06:19;;;;;;;19.05;4.53;;;3.50;99.90;;;;;;5057065;28;20083;-49
2022/11/30 05:08:45;;;;;;;16.98;5.57;;;3.50;99.90;;;;;;5055758;28;20037;-45
2022/11/30 05:11:10;;;;;;;23.63;4.22;;;3.50;99.90;;;;;;5061552;28;20029;-43
2022/11/30 05:13:36;;;;;;;13.70;4.28;;;3.60;99.90;;;;;;5061163;28;20036;-48
2022/11/30 05:16:02;;;;;;;23.85;5.30;;;3.70;99.90;;;;;;5058562;28;20498;-48
2022/11/30 05:18:28;;;;;;;19.92;5.45;;;3.70;99.90;;;;;;5058935;28;20047;-47
2022/11/30 05:20:54;;;;;;;58.25;7.90;;;3.80;99.90;;;;;;5053954;28;20044;-47
2022/11/30 05:23:20;;;;;;;15.00;6.35;;;3.90;99.90;;;;;;5055967;28;20497;-47
2022/11/30 05:25:47;;;;;;;17.60;5.13;;;3.90;99.90;;;;;;5060729;28;20024;-48
2022/11/30 05:28:12;;;;;;;35.80;8.68;;;3.90;99.90;;;;;;5058897;28;20458;-47
2022/11/30 05:30:40;;;;;;;11.93;4.68;;;4.00;99.90;;;;;;5051313;28;20036;-42
2022/11/30 05:33:05;;;;;;;16.38;5.38;;;4.00;99.90;;;;;;5051612;28;20110;-46
2022/11/30 05:35:31;;;;;;;35.72;6.15;;;4.00;99.90;;;;;;5064738;28;20098;-47
2022/11/30 05:37:57;;;;;;;20.05;5.15;;;4.10;99.90;;;;;;5070488;28;20038;-47
2022/11/30 05:40:24;;;;;;;55.72;9.73;;;4.10;99.90;;;;;;5049040;28;20500;-46
2022/11/30 05:42:55;;;;;;;15.77;6.10;;;4.20;99.90;;;;;;5060688;28;20502;-45
2022/11/30 05:45:21;;;;;;;13.48;5.45;;;4.20;99.90;;;;;;5062895;28;20452;-47
2022/11/30 05:47:47;;;;;;;10.80;4.88;;;4.20;99.90;;;;;;5051726;28;20037;-47
2022/11/30 05:50:12;;;;;;;12.70;6.60;;;4.30;99.90;;;;;;5056492;28;20568;-46
2022/11/30 05:52:38;;;;;;;10.93;5.97;;;4.30;99.90;;;;;;5052784;28;20039;-45
2022/11/30 05:55:04;;;;;;;12.02;6.47;;;4.30;99.90;;;;;;5062440;28;20769;-44
2022/11/30 05:57:29;;;;;;;15.15;7.50;;;4.40;99.90;;;;;;5063031;28;20033;-45
2022/11/30 05:59:55;;;;;;;12.63;6.65;;;4.50;99.90;;;;;;5058011;28;20047;-47
2022/11/30 06:02:21;;;;;;;10.43;5.55;;;4.50;99.90;;;;;;5052847;28;20074;-46
2022/11/30 06:04:46;;;;;;;14.35;7.03;;;4.50;99.90;;;;;;5061796;28;20033;-43
2022/11/30 06:07:12;;;;;;;12.70;6.78;;;4.50;99.90;;;;;;5056531;28;20154;-43
2022/11/30 06:09:38;;;;;;;14.15;6.32;;;4.50;99.90;;;;;;5052736;28;20187;-48
2022/11/30 06:12:04;;;;;;;11.18;6.43;;;4.60;99.90;;;;;;5052553;28;20051;-41
2022/11/30 06:14:30;;;;;;;14.57;8.07;;;4.60;99.90;;;;;;5059765;28;20151;-44
2022/11/30 06:16:56;;;;;;;14.38;6.78;;;4.60;99.90;;;;;;5058593;28;20120;-46
2022/11/30 06:19:21;;;;;;;12.05;6.53;;;4.60;99.90;;;;;;5053306;28;21501;-47
2022/11/30 06:21:47;;;;;;;16.98;8.38;;;4.60;99.90;;;;;;5060189;28;20124;-46
2022/11/30 06:24:13;;;;;;;16.75;8.10;;;4.70;99.90;;;;;;5061843;28;20127;-47
2022/11/30 06:26:39;;;;;;;16.88;8.57;;;4.70;99.90;;;;;;5058009;28;20068;-47
2022/11/30 06:29:04;;;;;;;22.95;9.15;;;4.80;99.90;;;;;;5062036;28;20465;-46
2022/11/30 06:31:30;;;;;;;16.45;8.88;;;4.80;99.90;;;;;;5058794;28;20033;-46
2022/11/30 06:33:57;;;;;;;16.50;8.00;;;4.80;99.90;;;;;;5060991;28;20036;-46
2022/11/30 06:36:23;;;;;;;18.33;7.90;;;4.80;99.90;;;;;;5060610;28;20127;-48
2022/11/30 06:38:49;;;;;;;15.73;7.80;;;4.90;99.90;;;;;;5058953;28;20160;-46
2022/11/30 06:41:15;;;;;;;15.95;7.68;;;4.90;99.90;;;;;;5058681;28;20046;-43
2022/11/30 06:43:41;;;;;;;13.05;6.97;;;4.90;99.90;;;;;;5060237;28;20052;-46
2022/11/30 06:46:07;;;;;;;15.98;8.05;;;4.90;99.90;;;;;;5060114;28;20040;-47
2022/11/30 06:48:34;;;;;;;14.60;7.45;;;4.90;99.90;;;;;;5064779;28;20129;-41
2022/11/30 06:51:00;;;;;;;23.13;10.20;;;4.90;99.90;;;;;;5066179;28;20107;-47
2022/11/30 06:53:26;;;;;;;18.35;8.65;;;4.90;99.90;;;;;;5075464;28;20482;-45
2022/11/30 06:55:52;;;;;;;18.75;9.43;;;5.00;99.90;;;;;;5057911;28;20056;-43
2022/11/30 06:58:18;;;;;;;15.68;7.57;;;5.00;99.90;;;;;;5060787;28;20390;-41
2022/11/30 07:00:43;;;;;;;15.07;6.70;;;5.00;99.90;;;;;;5058624;28;21837;-45
2022/11/30 07:03:10;;;;;;;15.77;7.35;;;5.10;99.90;;;;;;5060057;28;20124;-43
2022/11/30 07:05:42;;;;;;;20.27;10.00;;;5.10;99.90;;;;;;5062789;28;20039;-48
2022/11/30 07:08:09;;;;;;;19.40;9.07;;;5.10;99.90;;;;;;5058297;28;20053;-47
2022/11/30 07:10:39;;;;;;;22.05;9.38;;;5.10;99.90;;;;;;5060200;28;20082;-46
2022/11/30 07:13:09;;;;;;;19.77;9.40;;;5.10;99.90;;;;;;5059102;28;20052;-44
2022/11/30 07:15:35;;;;;;;19.30;9.20;;;5.20;99.90;;;;;;5063508;28;20040;-43
2022/11/30 07:18:00;;;;;;;21.35;9.32;;;5.20;99.90;;;;;;5060723;28;20039;-46
2022/11/30 07:20:26;;;;;;;16.58;8.02;;;5.20;99.90;;;;;;5065157;28;20391;-48
2022/11/30 07:22:54;;;;;;;21.65;10.82;;;5.20;99.90;;;;;;5069772;28;20041;-46
2022/11/30 07:28:07;;;;;;;21.38;10.13;;;5.30;99.90;;;;;;5059801;28;20057;-45
2022/11/30 07:30:33;;;;;;;17.23;8.30;;;5.30;99.90;;;;;;5064097;28;20487;-41
2022/11/30 07:32:59;;;;;;;25.40;11.02;;;5.30;99.90;;;;;;5055184;28;20052;-44
2022/11/30 07:35:24;;;;;;;19.33;10.07;;;5.30;99.90;;;;;;5064286;28;20048;-44
2022/11/30 07:37:50;;;;;;;21.88;10.68;;;5.40;99.90;;;;;;5062028;28;20536;-43
2022/11/30 07:40:16;;;;;;;24.73;12.07;;;5.40;99.90;;;;;;5056799;28;20486;-42
2022/11/30 07:42:41;;;;;;;18.67;9.00;;;5.40;99.90;;;;;;5060436;28;20033;-48
2022/11/30 07:45:07;;;;;;;20.00;9.05;;;5.40;99.90;;;;;;5075752;28;20041;-45
2022/11/30 07:47:33;;;;;;;21.20;10.55;;;5.40;99.90;;;;;;5063712;28;20032;-46
2022/11/30 07:49:59;;;;;;;22.73;10.65;;;5.50;99.90;;;;;;5064313;28;20028;-45
2022/11/30 07:52:24;;;;;;;21.45;9.88;;;5.50;99.90;;;;;;5062269;28;20044;-42
2022/11/30 07:54:50;;;;;;;20.00;9.98;;;5.50;99.90;;;;;;5066344;28;20048;-47
2022/11/30 07:57:16;;;;;;;21.65;10.23;;;5.50;99.90;;;;;;5069869;28;20087;-45
2022/11/30 07:59:41;;;;;;;23.13;10.90;;;5.60;99.90;;;;;;5063315;28;20037;-47
2022/11/30 08:02:09;;;;;;;18.25;9.30;;;5.60;99.90;;;;;;5058755;28;20686;-47
2022/11/30 08:04:35;;;;;;;16.08;8.20;;;5.60;99.90;;;;;;5073578;28;20598;-41
2022/11/30 08:07:01;;;;;;;18.90;9.73;;;5.60;99.90;;;;;;5056590;28;20044;-41
2022/11/30 08:09:26;;;;;;;22.83;12.13;;;5.60;99.90;;;;;;5053262;28;20028;-40
2022/11/30 08:11:52;;;;;;;21.33;11.45;;;5.70;99.90;;;;;;5054654;28;20036;-45
2022/11/30 08:14:17;;;;;;;22.88;11.25;;;5.70;99.90;;;;;;5064566;28;20041;-38
2022/11/30 08:16:43;;;;;;;18.17;9.43;;;5.70;99.90;;;;;;5059245;28;20519;-37
2022/11/30 08:19:09;;;;;;;20.33;10.40;;;5.80;99.90;;;;;;5060159;28;20048;-38
2022/11/30 08:21:36;;;;;;;28.60;13.30;;;5.80;99.90;;;;;;5060469;28;20045;-38
2022/11/30 08:24:02;;;;;;;24.20;12.20;;;5.80;99.90;;;;;;5054562;28;20516;-38
2022/11/30 08:26:30;;;;;;;23.58;11.80;;;5.90;99.90;;;;;;5056481;28;20036;-38
2022/11/30 08:28:57;;;;;;;22.23;9.57;;;5.90;99.90;;;;;;5053302;28;20056;-38
2022/11/30 08:31:32;;;;;;;20.75;10.43;;;5.90;99.90;;;;;;5056499;28;20045;-37
2022/11/30 08:34:03;;;;;;;39.03;14.32;;;5.90;99.90;;;;;;5062860;28;20952;-38
2022/11/30 08:36:29;;;;;;;22.52;11.32;;;6.00;99.90;;;;;;5062254;28;20040;-38
2022/11/30 08:38:59;;;;;;;23.83;12.25;;;6.00;99.90;;;;;;5054123;28;20045;-37
2022/11/30 08:41:25;;;;;;;23.02;11.55;;;6.00;99.90;;;;;;5054061;28;20048;-37
2022/11/30 08:43:51;;;;;;;22.52;11.15;;;6.00;99.90;;;;;;5063413;28;20063;-39
2022/11/30 08:46:19;;;;;;;22.10;10.98;;;6.00;99.90;;;;;;5061076;28;20040;-38
2022/11/30 08:48:45;;;;;;;22.25;11.32;;;6.10;99.90;;;;;;5062953;28;20051;-38
2022/11/30 08:51:13;;;;;;;21.85;10.40;;;6.10;99.90;;;;;;5066008;28;20040;-38
2022/11/30 08:53:39;;;;;;;20.08;10.73;;;6.10;99.90;;;;;;5064206;28;20445;-37
2022/11/30 08:56:07;;;;;;;18.63;9.35;;;6.10;99.90;;;;;;5063364;28;20036;-38
2022/11/30 08:58:36;;;;;;;19.33;10.00;;;6.10;99.90;;;;;;5057967;28;20036;-37
2022/11/30 09:01:13;;;;;;;22.73;12.13;;;6.10;99.90;;;;;;5053597;28;20044;-38
2022/11/30 09:03:40;;;;;;;24.63;12.07;;;6.20;99.90;;;;;;5061812;28;20041;-38
2022/11/30 09:06:12;;;;;;;26.15;12.43;;;6.20;99.90;;;;;;5059477;28;20112;-38
2022/11/30 09:08:39;;;;;;;25.92;12.55;;;6.20;99.90;;;;;;5059666;28;20041;-37
2022/11/30 09:11:18;;;;;;;24.42;11.80;;;6.20;99.90;;;;;;5060931;28;20049;-39
2022/11/30 09:13:44;;;;;;;21.23;10.13;;;6.20;99.90;;;;;;5067058;28;20062;-37
2022/11/30 09:16:11;;;;;;;25.52;12.02;;;6.30;99.90;;;;;;5065805;28;20451;-39
2022/11/30 09:18:37;;;;;;;25.00;10.73;;;6.30;99.90;;;;;;5062025;28;20549;-37
2022/11/30 09:21:08;;;;;;;25.98;12.48;;;6.30;99.90;;;;;;5061985;28;20127;-38
2022/11/30 09:23:35;;;;;;;22.92;11.65;;;6.30;99.90;;;;;;5059767;28;20036;-38
2022/11/30 09:26:03;;;;;;;25.55;12.25;;;6.30;99.90;;;;;;5054641;28;20045;-38
2022/11/30 09:28:29;;;;;;;24.77;11.50;;;6.30;99.90;;;;;;5055604;28;20033;-38
2022/11/30 09:31:01;;;;;;;20.48;9.40;;;6.20;99.90;;;;;;5062749;28;20114;-38
2022/11/30 09:33:27;;;;;;;27.87;12.47;;;6.20;99.90;;;;;;5056938;28;20029;-38
2022/11/30 09:36:01;;;;;;;22.92;11.60;;;6.20;99.90;;;;;;5058828;28;20067;-38
2022/11/30 09:38:27;;;;;;;27.45;12.20;;;6.20;99.90;;;;;;5058299;28;20037;-38
2022/11/30 09:40:55;;;;;;;24.88;10.90;;;6.10;99.90;;;;;;5059173;28;20533;-38
2022/11/30 09:43:39;;;;;;;25.75;11.65;;;6.10;99.90;;;;;;5053874;28;20033;-39
2022/11/30 09:46:08;;;;;;;22.65;11.02;;;6.10;99.90;;;;;;5055908;28;20049;-38
2022/11/30 09:48:36;;;;;;;21.52;10.68;;;6.20;99.90;;;;;;5065234;28;20512;-37
2022/11/30 09:51:10;;;;;;;26.40;11.20;;;6.20;99.90;;;;;;5056337;28;20494;-37
2022/11/30 09:53:43;;;;;;;26.83;11.98;;;6.30;99.90;;;;;;5053310;28;20120;-38
2022/11/30 09:56:20;;;;;;;;;;;6.40;99.90;;;;;;5061329;28;20035;-38
2022/11/30 09:58:52;;;;;;;23.67;10.50;;;6.50;99.90;;;;;;5054503;28;20025;-38
2022/11/30 10:01:19;;;;;;;23.33;11.27;;;6.50;99.90;;;;;;5057705;28;20044;-39
2022/11/30 10:03:46;;;;;;;22.85;11.95;;;6.60;99.90;;;;;;5057686;28;20519;-38
2022/11/30 10:06:22;;;;;;;26.30;11.75;;;6.70;99.90;;;;;;5057389;28;20036;-37
2022/11/30 10:09:07;;;;;;;21.98;10.52;;;6.80;99.90;;;;;;5056977;28;20093;-37
2022/11/30 10:12:12;;;;;;;23.25;10.18;;;6.80;99.90;;;;;;5056959;28;20547;-38
2022/11/30 10:15:11;;;;;;;26.33;11.95;;;6.80;99.90;;;;;;4996359;28;20464;-38
2022/11/30 10:17:43;;;;;;;22.15;11.50;;;6.90;99.90;;;;;;5053634;28;20037;-38
2022/11/30 10:20:21;;;;;;;27.27;11.17;;;6.80;99.90;;;;;;5057375;28;20044;-37
2022/11/30 10:22:58;;;;;;;21.73;10.70;;;6.80;99.90;;;;;;5064531;28;20052;-38
2022/11/30 10:25:40;;;;;;;23.42;11.32;;;6.80;99.90;;;;;;5056298;28;20078;-37
2022/11/30 10:28:16;;;;;;;23.13;10.77;;;6.80;99.90;;;;;;5061611;28;20158;-39
2022/11/30 10:30:42;;;;;;;26.48;10.93;;;6.80;99.90;;;;;;5057108;28;20505;-38
2022/11/30 10:33:29;;;;;;;22.85;10.48;;;6.80;99.90;;;;;;5066024;28;20037;-38
2022/11/30 10:36:13;;;;;;;25.00;10.52;;;6.80;99.90;;;;;;5054921;28;20054;-38
2022/11/30 10:38:49;;;;;;;22.42;11.35;;;6.80;99.90;;;;;;5065660;28;20119;-38
2022/11/30 10:41:52;;;;;;;21.08;9.63;;;6.90;99.90;;;;;;5055592;28;20044;-38
2022/11/30 10:44:29;;;;;;;21.92;11.10;;;6.90;99.90;;;;;;5058249;28;20504;-38
2022/11/30 10:47:09;;;;;;;21.75;9.75;;;6.90;99.90;;;;;;5064354;28;20090;-38
2022/11/30 10:49:37;;;;;;;21.23;10.75;;;7.00;99.90;;;;;;5054952;28;20410;-39
2022/11/30 10:52:07;;;;;;;24.27;11.38;;;7.00;99.90;;;;;;5066033;28;20052;-38
2022/11/30 10:54:35;;;;;;;21.05;10.32;;;7.00;99.90;;;;;;5062240;28;20032;-44
2022/11/30 10:57:06;;;;;;;28.30;12.90;;;7.00;99.90;;;;;;5056316;28;20509;-38
2022/11/30 10:59:46;;;;;;;24.08;11.27;;;7.00;99.90;;;;;;5058047;28;20044;-40
2022/11/30 11:02:41;;;;;;;25.90;11.02;;;7.00;99.90;;;;;;5071544;28;20051;-38
2022/11/30 11:05:07;;;;;;;21.15;10.38;;;7.00;99.90;;;;;;5057709;28;20056;-39
2022/11/30 11:07:33;;;;;;;16.42;9.00;;;7.00;99.90;;;;;;5063377;28;20126;-37
2022/11/30 11:10:03;;;;;;;21.20;9.95;;;7.10;99.90;;;;;;5049955;28;20509;-39
2022/11/30 11:12:29;;;;;;;20.92;10.77;;;7.10;99.90;;;;;;5060775;28;20072;-38
2022/11/30 11:15:25;;;;;;;23.92;11.43;;;7.10;99.90;;;;;;5064736;28;20048;-39
2022/11/30 11:17:53;;;;;;;24.35;11.27;;;7.10;99.90;;;;;;5057586;28;20554;-38
2022/11/30 11:20:37;;;;;;;22.77;10.98;;;7.10;99.90;;;;;;5065353;28;20131;-40
2022/11/30 11:23:04;;;;;;;21.35;10.18;;;7.10;99.90;;;;;;5059841;28;20075;-38
2022/11/30 11:25:33;;;;;;;21.30;10.98;;;7.10;99.90;;;;;;5061669;28;20036;-38
2022/11/30 11:28:07;;;;;;;23.75;11.43;;;7.20;99.90;;;;;;5068938;28;20094;-38
2022/11/30 11:30:35;;;;;;;21.60;10.43;;;7.20;99.90;;;;;;5051814;28;20546;-38
2022/11/30 11:33:22;;;;;;;22.10;9.85;;;7.20;99.90;;;;;;5055669;28;20055;-37
2022/11/30 11:36:12;;;;;;;23.58;11.43;;;7.20;99.90;;;;;;5057796;28;20486;-38
2022/11/30 11:38:47;;;;;;;21.73;10.50;;;7.20;99.90;;;;;;5054738;28;20066;-38
2022/11/30 11:41:33;;;;;;;22.95;10.27;;;7.20;99.90;;;;;;5064918;28;20051;-38
2022/11/30 11:44:21;;;;;;;22.38;10.70;;;7.20;99.90;;;;;;5057718;28;20508;-38
2022/11/30 11:46:57;;;;;;;24.65;11.23;;;7.20;99.90;;;;;;5055590;28;20037;-40
2022/11/30 11:49:35;;;;;;;21.08;10.05;;;7.20;99.90;;;;;;5054642;28;20079;-37
2022/11/30 11:52:04;;;;;;;18.85;9.43;;;7.20;99.90;;;;;;5057958;28;20041;-38
2022/11/30 11:54:35;;;;;;;19.85;10.25;;;7.20;99.90;;;;;;5066019;28;20510;-38
2022/11/30 11:57:03;;;;;;;20.73;10.57;;;7.20;99.90;;;;;;5056099;28;20029;-38
2022/11/30 12:00:07;;;;;;;22.25;10.20;;;7.20;99.90;;;;;;5058414;28;20053;-38
2022/11/30 12:02:46;;;;;;;19.27;10.43;;;7.20;99.90;;;;;;5061597;28;20052;-38
2022/11/30 12:05:19;;;;;;;20.70;10.90;;;7.20;99.90;;;;;;5066282;28;20040;-38
2022/11/30 12:08:04;;;;;;;20.23;10.32;;;7.20;99.90;;;;;;5058770;28;20101;-38
2022/11/30 12:10:51;;;;;;;20.38;10.30;;;7.20;99.90;;;;;;5055202;28;20135;-38
2022/11/30 12:13:36;;;;;;;21.98;10.88;;;7.20;99.90;;;;;;5074025;28;20070;-38
2022/11/30 12:16:10;;;;;;;20.13;9.75;;;7.20;99.90;;;;;;5062120;28;20478;-38
2022/11/30 12:19:06;;;;;;;21.10;10.05;;;7.20;99.90;;;;;;5054909;28;20170;-38
2022/11/30 12:21:53;;;;;;;21.42;10.85;;;7.20;99.90;;;;;;5056521;28;20033;-38
2022/11/30 12:25:10;;;;;;;19.75;10.10;;;7.20;99.90;;;;;;5064023;28;20480;-39
2022/11/30 12:28:18;;;;;;;20.95;10.82;;;7.30;99.90;;;;;;5056692;28;20055;-38
2022/11/30 12:31:24;;;;;;;18.80;9.23;;;7.30;99.90;;;;;;5065201;28;20509;-38
2022/11/30 12:34:11;;;;;;;19.02;9.70;;;7.30;99.90;;;;;;5060910;28;20430;-38
2022/11/30 12:36:59;;;;;;;23.08;10.27;;;7.30;99.90;;;;;;5062431;28;20047;-38
2022/11/30 12:39:31;;;;;;;21.17;10.07;;;7.30;99.90;;;;;;5057521;28;20048;-38
2022/11/30 12:42:02;;;;;;;18.30;9.10;;;7.30;99.90;;;;;;5052642;28;20132;-39
2022/11/30 12:44:37;;;;;;;16.27;9.23;;;7.30;99.90;;;;;;5052189;28;20539;-40
2022/11/30 12:47:19;;;;;;;14.90;8.20;;;7.30;99.90;;;;;;5052235;28;20041;-39
2022/11/30 12:50:29;;;;;;;19.25;9.93;;;7.30;99.90;;;;;;5056750;28;20124;-39
2022/11/30 12:53:01;;;;;;;17.60;9.23;;;7.30;99.90;;;;;;5054601;28;20044;-38
2022/11/30 12:55:59;;;;;;;18.70;9.27;;;7.30;99.90;;;;;;5061471;28;20037;-38
2022/11/30 12:58:50;;;;;;;20.40;10.13;;;7.30;99.90;;;;;;5053810;28;20037;-38
2022/11/30 13:01:44;;;;;;;19.63;9.45;;;7.30;99.90;;;;;;5056435;28;20048;-39
2022/11/30 13:04:31;;;;;;;20.23;10.73;;;7.30;99.90;;;;;;5062830;28;20405;-38